sensor_id;sensor_type;location;lat;lon;timestamp;temperature;humidity
8408;DHT22;4241;48.452;9.216;2023-05-07T00:02:20;16.70;99.90
8408;DHT22;4241;48.452;9.216;2023-05-07T00:07:14;16.60;99.90
8408;DHT22;4241;48.452;9.216;2023-05-07T00:09:41;16.50;99.90
8408;DHT22;4241;48.452;9.216;2023-05-07T00:14:35;16.50;99.90
8408;DHT22;4241;48.452;9.216;2023-05-07T00:17:02;16.50;99.90
8408;DHT22;4241;48.452;9.216;2023-05-07T00:19:30;16.50;99.90
8408;DHT22;4241;48.452;9.216;2023-05-07T00:21:57;16.50;99.90
8408;DHT22;4241;48.452;9.216;2023-05-07T00:24:24;16.40;99.90
8408;DHT22;4241;48.452;9.216;2023-05-07T00:26:51;16.50;99.90
8408;DHT22;4241;48.452;9.216;2023-05-07T00:29:18;16.40;99.90
8408;DHT22;4241;48.452;9.216;2023-05-07T00:34:12;16.40;99.90
8408;DHT22;4241;48.452;9.216;2023-05-07T00:36:40;16.40;99.90
8408;DHT22;4241;48.452;9.216;2023-05-07T00:39:06;16.40;99.90
8408;DHT22;4241;48.452;9.216;2023-05-07T00:41:34;16.40;99.90
8408;DHT22;4241;48.452;9.216;2023-05-07T00:44:00;16.30;99.90
8408;DHT22;4241;48.452;9.216;2023-05-07T00:46:28;16.30;99.90
8408;DHT22;4241;48.452;9.216;2023-05-07T00:48:57;16.30;99.90
8408;DHT22;4241;48.452;9.216;2023-05-07T00:51:25;16.20;99.90
8408;DHT22;4241;48.452;9.216;2023-05-07T00:53:54;16.10;99.90
8408;DHT22;4241;48.452;9.216;2023-05-07T00:56:21;16.10;99.90
8408;DHT22;4241;48.452;9.216;2023-05-07T01:03:43;15.90;99.90
8408;DHT22;4241;48.452;9.216;2023-05-07T01:06:10;15.80;99.90
8408;DHT22;4241;48.452;9.216;2023-05-07T01:08:42;15.80;99.90
8408;DHT22;4241;48.452;9.216;2023-05-07T01:11:11;15.70;99.90
8408;DHT22;4241;48.452;9.216;2023-05-07T01:13:38;15.80;99.90
8408;DHT22;4241;48.452;9.216;2023-05-07T01:16:06;15.70;99.90
8408;DHT22;4241;48.452;9.216;2023-05-07T01:21:02;15.50;99.90
8408;DHT22;4241;48.452;9.216;2023-05-07T01:23:33;15.30;99.90
8408;DHT22;4241;48.452;9.216;2023-05-07T01:28:27;15.00;99.90
8408;DHT22;4241;48.452;9.216;2023-05-07T01:30:58;15.10;99.90
8408;DHT22;4241;48.452;9.216;2023-05-07T01:33:29;15.00;99.90
8408;DHT22;4241;48.452;9.216;2023-05-07T01:35:57;15.10;99.90
8408;DHT22;4241;48.452;9.216;2023-05-07T01:38:25;14.90;99.90
8408;DHT22;4241;48.452;9.216;2023-05-07T01:40:55;14.90;99.90
8408;DHT22;4241;48.452;9.216;2023-05-07T01:43:22;15.00;99.90
8408;DHT22;4241;48.452;9.216;2023-05-07T01:45:49;14.70;99.90
8408;DHT22;4241;48.452;9.216;2023-05-07T01:48:17;14.70;99.90
8408;DHT22;4241;48.452;9.216;2023-05-07T01:50:44;14.70;99.90
8408;DHT22;4241;48.452;9.216;2023-05-07T01:53:11;14.70;99.90
8408;DHT22;4241;48.452;9.216;2023-05-07T01:55:38;14.80;99.90
8408;DHT22;4241;48.452;9.216;2023-05-07T01:58:06;14.60;99.90
8408;DHT22;4241;48.452;9.216;2023-05-07T02:00:33;14.60;99.90
8408;DHT22;4241;48.452;9.216;2023-05-07T02:03:00;14.70;99.90
8408;DHT22;4241;48.452;9.216;2023-05-07T02:05:27;14.50;99.90
8408;DHT22;4241;48.452;9.216;2023-05-07T02:15:16;14.40;99.90
8408;DHT22;4241;48.452;9.216;2023-05-07T02:17:58;14.40;99.90
8408;DHT22;4241;48.452;9.216;2023-05-07T02:20:25;14.30;99.90
8408;DHT22;4241;48.452;9.216;2023-05-07T02:22:52;14.40;99.90
8408;DHT22;4241;48.452;9.216;2023-05-07T02:25:19;14.30;99.90
8408;DHT22;4241;48.452;9.216;2023-05-07T02:30:13;14.30;99.90
8408;DHT22;4241;48.452;9.216;2023-05-07T02:32:42;14.30;99.90
8408;DHT22;4241;48.452;9.216;2023-05-07T02:35:08;14.20;99.90
8408;DHT22;4241;48.452;9.216;2023-05-07T02:37:35;14.10;99.90
8408;DHT22;4241;48.452;9.216;2023-05-07T02:42:30;14.10;99.90
8408;DHT22;4241;48.452;9.216;2023-05-07T02:49:53;14.00;99.90
8408;DHT22;4241;48.452;9.216;2023-05-07T02:52:20;14.00;99.90
8408;DHT22;4241;48.452;9.216;2023-05-07T02:57:14;14.00;99.90
8408;DHT22;4241;48.452;9.216;2023-05-07T02:59:41;14.00;99.90
8408;DHT22;4241;48.452;9.216;2023-05-07T03:04:36;13.80;99.90
8408;DHT22;4241;48.452;9.216;2023-05-07T03:07:04;14.00;99.90
8408;DHT22;4241;48.452;9.216;2023-05-07T03:24:14;13.70;99.90
8408;DHT22;4241;48.452;9.216;2023-05-07T03:41:25;13.50;99.90
8408;DHT22;4241;48.452;9.216;2023-05-07T03:58:36;13.00;99.90
8408;DHT22;4241;48.452;9.216;2023-05-07T04:01:03;13.10;99.90
8408;DHT22;4241;48.452;9.216;2023-05-07T04:03:30;13.10;99.90
8408;DHT22;4241;48.452;9.216;2023-05-07T04:05:57;13.00;99.90
8408;DHT22;4241;48.452;9.216;2023-05-07T04:08:23;13.00;99.90
8408;DHT22;4241;48.452;9.216;2023-05-07T04:10:54;13.00;99.90
8408;DHT22;4241;48.452;9.216;2023-05-07T04:13:21;13.00;99.90
8408;DHT22;4241;48.452;9.216;2023-05-07T04:15:50;13.40;99.90
8408;DHT22;4241;48.452;9.216;2023-05-07T04:20:45;13.10;99.90
8408;DHT22;4241;48.452;9.216;2023-05-07T04:28:07;13.10;99.90
8408;DHT22;4241;48.452;9.216;2023-05-07T04:30:33;13.10;99.90
8408;DHT22;4241;48.452;9.216;2023-05-07T04:33:02;13.10;99.90
8408;DHT22;4241;48.452;9.216;2023-05-07T04:35:28;13.10;99.90
8408;DHT22;4241;48.452;9.216;2023-05-07T04:40:22;13.10;99.90
8408;DHT22;4241;48.452;9.216;2023-05-07T04:42:49;13.00;99.90
8408;DHT22;4241;48.452;9.216;2023-05-07T04:45:16;13.00;99.90
8408;DHT22;4241;48.452;9.216;2023-05-07T04:47:43;13.00;99.90
8408;DHT22;4241;48.452;9.216;2023-05-07T04:50:11;13.00;99.90
8408;DHT22;4241;48.452;9.216;2023-05-07T04:52:38;13.00;99.90
8408;DHT22;4241;48.452;9.216;2023-05-07T04:55:06;12.90;99.90
8408;DHT22;4241;48.452;9.216;2023-05-07T04:57:33;12.80;99.90
8408;DHT22;4241;48.452;9.216;2023-05-07T04:59:59;12.90;99.90
8408;DHT22;4241;48.452;9.216;2023-05-07T05:02:26;12.80;99.90
8408;DHT22;4241;48.452;9.216;2023-05-07T05:04:53;12.90;99.90
8408;DHT22;4241;48.452;9.216;2023-05-07T05:07:21;15.30;99.90
8408;DHT22;4241;48.452;9.216;2023-05-07T05:09:48;13.00;99.90
8408;DHT22;4241;48.452;9.216;2023-05-07T05:12:15;13.00;99.90
8408;DHT22;4241;48.452;9.216;2023-05-07T05:14:41;13.20;99.90
8408;DHT22;4241;48.452;9.216;2023-05-07T05:17:08;13.30;99.90
8408;DHT22;4241;48.452;9.216;2023-05-07T05:19:35;13.20;99.90
8408;DHT22;4241;48.452;9.216;2023-05-07T05:22:02;13.10;99.90
8408;DHT22;4241;48.452;9.216;2023-05-07T05:24:30;13.40;99.90
8408;DHT22;4241;48.452;9.216;2023-05-07T05:26:57;13.40;99.90
8408;DHT22;4241;48.452;9.216;2023-05-07T05:29:25;13.40;99.90
8408;DHT22;4241;48.452;9.216;2023-05-07T05:31:52;13.50;99.90
8408;DHT22;4241;48.452;9.216;2023-05-07T05:34:18;13.60;99.90
8408;DHT22;4241;48.452;9.216;2023-05-07T05:36:45;13.70;99.90
8408;DHT22;4241;48.452;9.216;2023-05-07T05:39:12;13.80;99.90
8408;DHT22;4241;48.452;9.216;2023-05-07T05:41:41;14.00;99.90
8408;DHT22;4241;48.452;9.216;2023-05-07T05:46:35;14.30;99.90
8408;DHT22;4241;48.452;9.216;2023-05-07T05:58:52;14.80;99.90
8408;DHT22;4241;48.452;9.216;2023-05-07T06:08:41;15.20;99.90
8408;DHT22;4241;48.452;9.216;2023-05-07T06:11:08;15.20;99.90
8408;DHT22;4241;48.452;9.216;2023-05-07T06:16:04;15.60;99.90
8408;DHT22;4241;48.452;9.216;2023-05-07T06:18:31;15.70;99.90
8408;DHT22;4241;48.452;9.216;2023-05-07T06:20:57;16.00;99.90
8408;DHT22;4241;48.452;9.216;2023-05-07T06:25:51;16.20;99.90
8408;DHT22;4241;48.452;9.216;2023-05-07T06:30:45;16.40;99.90
8408;DHT22;4241;48.452;9.216;2023-05-07T06:33:14;16.20;99.90
8408;DHT22;4241;48.452;9.216;2023-05-07T06:35:40;16.40;99.90
8408;DHT22;4241;48.452;9.216;2023-05-07T06:38:07;16.60;99.90
8408;DHT22;4241;48.452;9.216;2023-05-07T06:40:34;16.80;99.90
8408;DHT22;4241;48.452;9.216;2023-05-07T06:47:55;17.00;99.90
8408;DHT22;4241;48.452;9.216;2023-05-07T06:50:23;17.10;99.90
8408;DHT22;4241;48.452;9.216;2023-05-07T06:52:50;17.20;99.90
8408;DHT22;4241;48.452;9.216;2023-05-07T06:55:17;17.20;99.90
8408;DHT22;4241;48.452;9.216;2023-05-07T06:57:44;17.20;99.90
8408;DHT22;4241;48.452;9.216;2023-05-07T07:00:12;17.30;99.90
8408;DHT22;4241;48.452;9.216;2023-05-07T07:02:39;17.30;99.90
8408;DHT22;4241;48.452;9.216;2023-05-07T07:05:07;17.40;99.90
8408;DHT22;4241;48.452;9.216;2023-05-07T07:07:35;17.60;99.90
8408;DHT22;4241;48.452;9.216;2023-05-07T07:10:02;17.70;99.90
8408;DHT22;4241;48.452;9.216;2023-05-07T07:12:30;17.90;99.90
8408;DHT22;4241;48.452;9.216;2023-05-07T07:14:57;18.10;99.90
8408;DHT22;4241;48.452;9.216;2023-05-07T07:17:23;18.10;99.90
8408;DHT22;4241;48.452;9.216;2023-05-07T07:19:50;18.20;99.90
8408;DHT22;4241;48.452;9.216;2023-05-07T07:22:17;18.30;99.90
8408;DHT22;4241;48.452;9.216;2023-05-07T07:24:45;18.40;99.90
8408;DHT22;4241;48.452;9.216;2023-05-07T07:29:39;18.70;99.90
8408;DHT22;4241;48.452;9.216;2023-05-07T07:32:06;19.00;99.90
8408;DHT22;4241;48.452;9.216;2023-05-07T07:34:32;19.00;99.90
8408;DHT22;4241;48.452;9.216;2023-05-07T07:41:59;19.60;99.90
8408;DHT22;4241;48.452;9.216;2023-05-07T07:56:41;20.40;99.90
8408;DHT22;4241;48.452;9.216;2023-05-07T07:59:10;20.60;99.90
8408;DHT22;4241;48.452;9.216;2023-05-07T08:06:31;20.40;99.90
8408;DHT22;4241;48.452;9.216;2023-05-07T08:08:58;20.60;99.90
8408;DHT22;4241;48.452;9.216;2023-05-07T08:11:25;20.70;99.90
8408;DHT22;4241;48.452;9.216;2023-05-07T08:13:53;20.90;99.90
8408;DHT22;4241;48.452;9.216;2023-05-07T08:16:21;20.90;99.90
8408;DHT22;4241;48.452;9.216;2023-05-07T08:28:37;20.70;99.90
8408;DHT22;4241;48.452;9.216;2023-05-07T08:33:34;20.50;99.90
8408;DHT22;4241;48.452;9.216;2023-05-07T08:36:01;20.20;99.90
8408;DHT22;4241;48.452;9.216;2023-05-07T08:40:55;20.10;99.90
8408;DHT22;4241;48.452;9.216;2023-05-07T08:43:24;20.10;99.90
8408;DHT22;4241;48.452;9.216;2023-05-07T08:45:54;20.00;99.90
8408;DHT22;4241;48.452;9.216;2023-05-07T08:48:23;20.00;99.90
8408;DHT22;4241;48.452;9.216;2023-05-07T08:50:53;20.10;99.90
8408;DHT22;4241;48.452;9.216;2023-05-07T08:53:20;19.80;99.90
8408;DHT22;4241;48.452;9.216;2023-05-07T08:55:47;19.70;99.90
8408;DHT22;4241;48.452;9.216;2023-05-07T08:58:14;19.60;99.90
8408;DHT22;4241;48.452;9.216;2023-05-07T09:00:42;19.50;99.90
8408;DHT22;4241;48.452;9.216;2023-05-07T09:03:09;19.70;99.90
8408;DHT22;4241;48.452;9.216;2023-05-07T09:08:08;20.20;99.90
8408;DHT22;4241;48.452;9.216;2023-05-07T09:10:35;20.50;99.90
8408;DHT22;4241;48.452;9.216;2023-05-07T09:13:03;20.70;99.90
8408;DHT22;4241;48.452;9.216;2023-05-07T09:15:30;21.00;99.90
8408;DHT22;4241;48.452;9.216;2023-05-07T09:17:59;21.00;99.90
8408;DHT22;4241;48.452;9.216;2023-05-07T09:20:28;21.40;99.90
8408;DHT22;4241;48.452;9.216;2023-05-07T09:22:56;21.70;99.90
8408;DHT22;4241;48.452;9.216;2023-05-07T09:25:29;22.00;99.90
8408;DHT22;4241;48.452;9.216;2023-05-07T09:27:56;22.10;99.90
8408;DHT22;4241;48.452;9.216;2023-05-07T09:30:27;22.40;99.90
8408;DHT22;4241;48.452;9.216;2023-05-07T09:32:54;22.50;99.90
8408;DHT22;4241;48.452;9.216;2023-05-07T09:35:21;22.80;99.90
8408;DHT22;4241;48.452;9.216;2023-05-07T09:37:49;23.00;99.90
8408;DHT22;4241;48.452;9.216;2023-05-07T09:40:23;23.10;99.90
8408;DHT22;4241;48.452;9.216;2023-05-07T09:42:52;23.40;99.90
8408;DHT22;4241;48.452;9.216;2023-05-07T09:45:22;23.50;99.90
8408;DHT22;4241;48.452;9.216;2023-05-07T09:47:54;23.40;99.90
8408;DHT22;4241;48.452;9.216;2023-05-07T09:50:25;23.70;99.90
8408;DHT22;4241;48.452;9.216;2023-05-07T09:52:54;23.70;99.90
8408;DHT22;4241;48.452;9.216;2023-05-07T09:55:21;23.80;99.90
8408;DHT22;4241;48.452;9.216;2023-05-07T09:57:52;23.70;99.90
8408;DHT22;4241;48.452;9.216;2023-05-07T10:00:20;24.00;99.90
8408;DHT22;4241;48.452;9.216;2023-05-07T10:02:48;24.00;99.90
8408;DHT22;4241;48.452;9.216;2023-05-07T10:05:18;24.10;99.90
8408;DHT22;4241;48.452;9.216;2023-05-07T10:07:46;24.10;99.90
8408;DHT22;4241;48.452;9.216;2023-05-07T10:10:14;24.10;99.90
8408;DHT22;4241;48.452;9.216;2023-05-07T10:12:41;24.40;99.90
8408;DHT22;4241;48.452;9.216;2023-05-07T10:15:10;24.30;99.90
8408;DHT22;4241;48.452;9.216;2023-05-07T10:17:38;24.40;99.90
8408;DHT22;4241;48.452;9.216;2023-05-07T10:20:06;24.50;99.90
8408;DHT22;4241;48.452;9.216;2023-05-07T10:22:38;24.60;99.90
8408;DHT22;4241;48.452;9.216;2023-05-07T10:25:09;24.40;99.90
8408;DHT22;4241;48.452;9.216;2023-05-07T10:27:39;24.30;99.90
8408;DHT22;4241;48.452;9.216;2023-05-07T10:30:15;24.60;99.90
8408;DHT22;4241;48.452;9.216;2023-05-07T10:32:49;24.80;99.30
8408;DHT22;4241;48.452;9.216;2023-05-07T10:35:20;24.80;93.80
8408;DHT22;4241;48.452;9.216;2023-05-07T10:37:48;24.80;95.60
8408;DHT22;4241;48.452;9.216;2023-05-07T10:40:15;24.90;95.30
8408;DHT22;4241;48.452;9.216;2023-05-07T10:42:58;24.80;96.00
8408;DHT22;4241;48.452;9.216;2023-05-07T10:45:27;24.90;97.90
8408;DHT22;4241;48.452;9.216;2023-05-07T10:48:08;24.60;97.60
8408;DHT22;4241;48.452;9.216;2023-05-07T10:50:35;24.50;96.20
8408;DHT22;4241;48.452;9.216;2023-05-07T10:53:22;24.10;95.70
8408;DHT22;4241;48.452;9.216;2023-05-07T10:56:25;23.90;96.90
8408;DHT22;4241;48.452;9.216;2023-05-07T10:58:55;23.90;99.30
8408;DHT22;4241;48.452;9.216;2023-05-07T11:01:52;23.70;99.90
8408;DHT22;4241;48.452;9.216;2023-05-07T11:04:19;23.80;97.60
8408;DHT22;4241;48.452;9.216;2023-05-07T11:10:03;23.70;99.90
8408;DHT22;4241;48.452;9.216;2023-05-07T11:12:50;23.70;99.90
8408;DHT22;4241;48.452;9.216;2023-05-07T11:15:36;23.80;99.90
8408;DHT22;4241;48.452;9.216;2023-05-07T11:18:05;23.70;99.90
8408;DHT22;4241;48.452;9.216;2023-05-07T11:20:49;23.70;99.90
8408;DHT22;4241;48.452;9.216;2023-05-07T11:23:56;23.50;99.90
8408;DHT22;4241;48.452;9.216;2023-05-07T11:26:27;23.40;99.90
8408;DHT22;4241;48.452;9.216;2023-05-07T11:28:55;23.40;99.90
8408;DHT22;4241;48.452;9.216;2023-05-07T11:31:24;23.40;99.90
8408;DHT22;4241;48.452;9.216;2023-05-07T11:33:53;23.40;99.90
8408;DHT22;4241;48.452;9.216;2023-05-07T11:36:22;23.30;99.90
8408;DHT22;4241;48.452;9.216;2023-05-07T11:38:49;23.30;99.90
8408;DHT22;4241;48.452;9.216;2023-05-07T11:41:16;23.40;99.90
8408;DHT22;4241;48.452;9.216;2023-05-07T11:43:58;23.60;99.90
8408;DHT22;4241;48.452;9.216;2023-05-07T11:46:27;23.60;99.90
8408;DHT22;4241;48.452;9.216;2023-05-07T11:48:55;23.70;99.90
8408;DHT22;4241;48.452;9.216;2023-05-07T11:51:23;23.80;99.90
8408;DHT22;4241;48.452;9.216;2023-05-07T11:53:52;23.80;99.90
8408;DHT22;4241;48.452;9.216;2023-05-07T11:56:19;23.70;99.90
8408;DHT22;4241;48.452;9.216;2023-05-07T11:58:47;23.60;99.90
8408;DHT22;4241;48.452;9.216;2023-05-07T12:01:15;23.50;99.90
8408;DHT22;4241;48.452;9.216;2023-05-07T12:03:44;23.40;99.90
8408;DHT22;4241;48.452;9.216;2023-05-07T12:06:14;23.30;99.90
8408;DHT22;4241;48.452;9.216;2023-05-07T12:08:42;23.10;99.90
8408;DHT22;4241;48.452;9.216;2023-05-07T12:11:12;23.10;99.90
8408;DHT22;4241;48.452;9.216;2023-05-07T12:13:39;22.90;99.90
8408;DHT22;4241;48.452;9.216;2023-05-07T12:16:06;22.80;99.90
8408;DHT22;4241;48.452;9.216;2023-05-07T12:18:35;22.70;99.90
8408;DHT22;4241;48.452;9.216;2023-05-07T12:21:04;22.40;99.90
8408;DHT22;4241;48.452;9.216;2023-05-07T12:23:33;22.10;99.90
8408;DHT22;4241;48.452;9.216;2023-05-07T12:26:00;22.10;99.90
8408;DHT22;4241;48.452;9.216;2023-05-07T12:28:27;22.00;99.90
8408;DHT22;4241;48.452;9.216;2023-05-07T12:30:57;21.90;99.90
8408;DHT22;4241;48.452;9.216;2023-05-07T12:33:25;21.70;99.90
8408;DHT22;4241;48.452;9.216;2023-05-07T12:35:54;21.70;99.90
8408;DHT22;4241;48.452;9.216;2023-05-07T12:38:22;21.60;99.90
8408;DHT22;4241;48.452;9.216;2023-05-07T12:40:53;21.40;99.90
8408;DHT22;4241;48.452;9.216;2023-05-07T12:43:21;21.40;99.90
8408;DHT22;4241;48.452;9.216;2023-05-07T12:45:50;21.20;99.90
8408;DHT22;4241;48.452;9.216;2023-05-07T12:48:17;21.10;99.90
8408;DHT22;4241;48.452;9.216;2023-05-07T12:50:45;21.00;99.90
8408;DHT22;4241;48.452;9.216;2023-05-07T12:53:15;20.90;99.90
8408;DHT22;4241;48.452;9.216;2023-05-07T12:55:42;20.70;99.90
8408;DHT22;4241;48.452;9.216;2023-05-07T12:58:16;20.60;99.90
8408;DHT22;4241;48.452;9.216;2023-05-07T13:00:43;19.30;99.90
8408;DHT22;4241;48.452;9.216;2023-05-07T13:03:11;20.50;99.90
8408;DHT22;4241;48.452;9.216;2023-05-07T13:05:38;20.40;99.90
8408;DHT22;4241;48.452;9.216;2023-05-07T13:08:05;20.40;99.90
8408;DHT22;4241;48.452;9.216;2023-05-07T13:10:35;21.50;99.90
8408;DHT22;4241;48.452;9.216;2023-05-07T13:13:01;20.40;99.90
8408;DHT22;4241;48.452;9.216;2023-05-07T13:15:30;20.30;99.90
8408;DHT22;4241;48.452;9.216;2023-05-07T13:17:57;19.50;99.90
8408;DHT22;4241;48.452;9.216;2023-05-07T13:20:24;19.20;99.90
8408;DHT22;4241;48.452;9.216;2023-05-07T13:30:12;17.40;99.90
8408;DHT22;4241;48.452;9.216;2023-05-07T13:32:40;17.00;99.90
8408;DHT22;4241;48.452;9.216;2023-05-07T13:35:07;17.10;99.90
8408;DHT22;4241;48.452;9.216;2023-05-07T13:40:02;16.60;99.90
8408;DHT22;4241;48.452;9.216;2023-05-07T13:42:29;16.70;99.90
8408;DHT22;4241;48.452;9.216;2023-05-07T13:47:23;16.40;99.90
8408;DHT22;4241;48.452;9.216;2023-05-07T13:49:51;16.30;99.90
8408;DHT22;4241;48.452;9.216;2023-05-07T13:52:18;16.30;99.90
8408;DHT22;4241;48.452;9.216;2023-05-07T13:54:45;16.20;99.90
8408;DHT22;4241;48.452;9.216;2023-05-07T13:59:40;16.10;99.90
8408;DHT22;4241;48.452;9.216;2023-05-07T14:02:07;16.00;99.90
8408;DHT22;4241;48.452;9.216;2023-05-07T14:04:34;16.10;99.90
8408;DHT22;4241;48.452;9.216;2023-05-07T14:07:03;16.10;99.90
8408;DHT22;4241;48.452;9.216;2023-05-07T14:09:29;16.10;99.90
8408;DHT22;4241;48.452;9.216;2023-05-07T14:14:23;16.30;99.90
8408;DHT22;4241;48.452;9.216;2023-05-07T14:24:13;16.50;99.90
8408;DHT22;4241;48.452;9.216;2023-05-07T14:26:40;16.60;99.90
8408;DHT22;4241;48.452;9.216;2023-05-07T14:29:07;16.60;99.90
8408;DHT22;4241;48.452;9.216;2023-05-07T14:36:28;16.40;99.90
8408;DHT22;4241;48.452;9.216;2023-05-07T14:38:57;16.50;99.90
8408;DHT22;4241;48.452;9.216;2023-05-07T14:41:26;16.50;99.90
8408;DHT22;4241;48.452;9.216;2023-05-07T14:43:52;16.60;99.90
8408;DHT22;4241;48.452;9.216;2023-05-07T14:51:14;16.80;99.90
8408;DHT22;4241;48.452;9.216;2023-05-07T14:53:41;17.10;99.90
8408;DHT22;4241;48.452;9.216;2023-05-07T14:56:08;16.90;99.90
8408;DHT22;4241;48.452;9.216;2023-05-07T14:58:36;16.90;99.90
8408;DHT22;4241;48.452;9.216;2023-05-07T15:08:24;17.00;99.90
8408;DHT22;4241;48.452;9.216;2023-05-07T15:13:20;17.30;99.90
8408;DHT22;4241;48.452;9.216;2023-05-07T15:15:49;17.20;99.90
8408;DHT22;4241;48.452;9.216;2023-05-07T15:18:16;17.50;99.90
8408;DHT22;4241;48.452;9.216;2023-05-07T15:20:43;17.50;99.90
8408;DHT22;4241;48.452;9.216;2023-05-07T15:23:10;17.60;99.90
8408;DHT22;4241;48.452;9.216;2023-05-07T15:30:32;17.80;99.90
8408;DHT22;4241;48.452;9.216;2023-05-07T15:33:01;17.90;99.90
8408;DHT22;4241;48.452;9.216;2023-05-07T15:35:28;17.70;99.90
8408;DHT22;4241;48.452;9.216;2023-05-07T15:42:54;18.00;99.90
8408;DHT22;4241;48.452;9.216;2023-05-07T15:45:22;18.10;99.90
8408;DHT22;4241;48.452;9.216;2023-05-07T15:47:49;18.10;99.90
8408;DHT22;4241;48.452;9.216;2023-05-07T15:50:17;18.10;99.90
8408;DHT22;4241;48.452;9.216;2023-05-07T15:52:44;18.20;99.90
8408;DHT22;4241;48.452;9.216;2023-05-07T16:00:07;18.30;99.90
8408;DHT22;4241;48.452;9.216;2023-05-07T16:02:37;17.90;99.90
8408;DHT22;4241;48.452;9.216;2023-05-07T16:05:05;17.90;99.90
8408;DHT22;4241;48.452;9.216;2023-05-07T16:07:34;18.10;99.90
8408;DHT22;4241;48.452;9.216;2023-05-07T16:10:02;17.90;99.90
8408;DHT22;4241;48.452;9.216;2023-05-07T16:12:28;17.80;99.90
8408;DHT22;4241;48.452;9.216;2023-05-07T16:17:22;17.70;99.90
8408;DHT22;4241;48.452;9.216;2023-05-07T16:19:49;17.70;99.90
8408;DHT22;4241;48.452;9.216;2023-05-07T16:22:16;17.50;99.90
8408;DHT22;4241;48.452;9.216;2023-05-07T16:24:45;17.50;99.90
8408;DHT22;4241;48.452;9.216;2023-05-07T16:27:11;17.20;99.90
8408;DHT22;4241;48.452;9.216;2023-05-07T16:29:38;17.20;99.90
8408;DHT22;4241;48.452;9.216;2023-05-07T16:32:05;17.20;99.90
8408;DHT22;4241;48.452;9.216;2023-05-07T16:36:59;16.90;99.90
8408;DHT22;4241;48.452;9.216;2023-05-07T16:41:55;17.00;99.90
8408;DHT22;4241;48.452;9.216;2023-05-07T16:46:49;16.70;99.90
8408;DHT22;4241;48.452;9.216;2023-05-07T16:49:17;16.90;99.90
8408;DHT22;4241;48.452;9.216;2023-05-07T16:54:11;16.90;99.90
8408;DHT22;4241;48.452;9.216;2023-05-07T16:56:38;17.10;99.90
8408;DHT22;4241;48.452;9.216;2023-05-07T16:59:08;17.00;99.90
8408;DHT22;4241;48.452;9.216;2023-05-07T17:13:55;16.80;99.90
8408;DHT22;4241;48.452;9.216;2023-05-07T17:16:23;16.70;99.90
8408;DHT22;4241;48.452;9.216;2023-05-07T17:18:50;16.70;99.90
8408;DHT22;4241;48.452;9.216;2023-05-07T17:21:17;16.80;99.90
8408;DHT22;4241;48.452;9.216;2023-05-07T17:23:44;16.80;99.90
8408;DHT22;4241;48.452;9.216;2023-05-07T17:26:11;16.70;99.90
8408;DHT22;4241;48.452;9.216;2023-05-07T17:28:38;16.70;99.90
8408;DHT22;4241;48.452;9.216;2023-05-07T17:31:05;16.70;99.90
8408;DHT22;4241;48.452;9.216;2023-05-07T17:33:33;16.70;99.90
8408;DHT22;4241;48.452;9.216;2023-05-07T17:38:28;17.00;99.90
8408;DHT22;4241;48.452;9.216;2023-05-07T17:43:22;16.80;99.90
8408;DHT22;4241;48.452;9.216;2023-05-07T17:50:45;16.80;99.90
8408;DHT22;4241;48.452;9.216;2023-05-07T17:53:12;16.70;99.90
8408;DHT22;4241;48.452;9.216;2023-05-07T17:55:40;16.70;99.90
8408;DHT22;4241;48.452;9.216;2023-05-07T18:05:30;16.60;99.90
8408;DHT22;4241;48.452;9.216;2023-05-07T18:07:58;16.60;99.90
8408;DHT22;4241;48.452;9.216;2023-05-07T18:10:25;16.70;99.90
8408;DHT22;4241;48.452;9.216;2023-05-07T18:12:52;16.60;99.90
8408;DHT22;4241;48.452;9.216;2023-05-07T18:15:19;16.70;99.90
8408;DHT22;4241;48.452;9.216;2023-05-07T18:20:13;16.50;99.90
8408;DHT22;4241;48.452;9.216;2023-05-07T18:22:40;16.60;99.90
8408;DHT22;4241;48.452;9.216;2023-05-07T18:25:09;16.50;99.90
8408;DHT22;4241;48.452;9.216;2023-05-07T18:30:03;16.30;99.90
8408;DHT22;4241;48.452;9.216;2023-05-07T18:39:52;16.40;99.90
8408;DHT22;4241;48.452;9.216;2023-05-07T18:42:20;16.30;99.90
8408;DHT22;4241;48.452;9.216;2023-05-07T18:47:14;16.30;99.90
8408;DHT22;4241;48.452;9.216;2023-05-07T18:49:41;16.30;99.90
8408;DHT22;4241;48.452;9.216;2023-05-07T18:54:35;16.20;99.90
8408;DHT22;4241;48.452;9.216;2023-05-07T18:59:30;16.00;99.90
8408;DHT22;4241;48.452;9.216;2023-05-07T19:04:24;16.30;99.90
8408;DHT22;4241;48.452;9.216;2023-05-07T19:11:45;15.80;99.90
8408;DHT22;4241;48.452;9.216;2023-05-07T19:16:41;15.90;99.90
8408;DHT22;4241;48.452;9.216;2023-05-07T19:21:35;15.80;99.90
8408;DHT22;4241;48.452;9.216;2023-05-07T19:24:02;15.60;99.90
8408;DHT22;4241;48.452;9.216;2023-05-07T19:28:56;15.90;99.90
8408;DHT22;4241;48.452;9.216;2023-05-07T19:31:24;15.80;99.90
8408;DHT22;4241;48.452;9.216;2023-05-07T19:33:53;15.70;99.90
8408;DHT22;4241;48.452;9.216;2023-05-07T19:36:20;15.70;99.90
8408;DHT22;4241;48.452;9.216;2023-05-07T19:38:47;15.70;99.90
8408;DHT22;4241;48.452;9.216;2023-05-07T19:41:17;15.70;99.90
8408;DHT22;4241;48.452;9.216;2023-05-07T19:43:44;15.60;99.90
8408;DHT22;4241;48.452;9.216;2023-05-07T19:48:38;15.60;99.90
8408;DHT22;4241;48.452;9.216;2023-05-07T19:51:06;15.50;99.90
8408;DHT22;4241;48.452;9.216;2023-05-07T19:56:04;15.40;99.90
8408;DHT22;4241;48.452;9.216;2023-05-07T19:58:31;15.50;99.90
8408;DHT22;4241;48.452;9.216;2023-05-07T20:00:58;15.50;99.90
8408;DHT22;4241;48.452;9.216;2023-05-07T20:03:26;15.40;99.90
8408;DHT22;4241;48.452;9.216;2023-05-07T20:05:53;15.50;99.90
8408;DHT22;4241;48.452;9.216;2023-05-07T20:08:21;15.50;99.90
8408;DHT22;4241;48.452;9.216;2023-05-07T20:10:49;15.60;99.90
8408;DHT22;4241;48.452;9.216;2023-05-07T20:15:44;15.40;99.90
8408;DHT22;4241;48.452;9.216;2023-05-07T20:20:40;15.60;99.90
8408;DHT22;4241;48.452;9.216;2023-05-07T20:25:35;15.20;99.90
8408;DHT22;4241;48.452;9.216;2023-05-07T20:28:02;15.30;99.90
8408;DHT22;4241;48.452;9.216;2023-05-07T20:30:29;15.20;99.90
8408;DHT22;4241;48.452;9.216;2023-05-07T20:35:23;15.20;99.90
8408;DHT22;4241;48.452;9.216;2023-05-07T20:42:46;15.20;99.90
8408;DHT22;4241;48.452;9.216;2023-05-07T20:45:13;15.50;99.90
8408;DHT22;4241;48.452;9.216;2023-05-07T20:47:40;15.10;99.90
8408;DHT22;4241;48.452;9.216;2023-05-07T20:50:07;16.90;99.90
8408;DHT22;4241;48.452;9.216;2023-05-07T20:52:34;15.30;99.90
8408;DHT22;4241;48.452;9.216;2023-05-07T20:55:01;15.20;99.90
8408;DHT22;4241;48.452;9.216;2023-05-07T20:57:28;15.30;99.90
8408;DHT22;4241;48.452;9.216;2023-05-07T20:59:56;15.30;99.90
8408;DHT22;4241;48.452;9.216;2023-05-07T21:04:50;15.00;99.90
8408;DHT22;4241;48.452;9.216;2023-05-07T21:07:17;17.90;99.90
8408;DHT22;4241;48.452;9.216;2023-05-07T21:09:44;15.30;99.90
8408;DHT22;4241;48.452;9.216;2023-05-07T21:12:11;15.20;99.90
8408;DHT22;4241;48.452;9.216;2023-05-07T21:14:38;15.20;99.90
8408;DHT22;4241;48.452;9.216;2023-05-07T21:17:06;15.00;99.90
8408;DHT22;4241;48.452;9.216;2023-05-07T21:19:33;15.20;99.90
8408;DHT22;4241;48.452;9.216;2023-05-07T21:26:55;15.30;99.90
8408;DHT22;4241;48.452;9.216;2023-05-07T21:29:22;15.20;99.90
8408;DHT22;4241;48.452;9.216;2023-05-07T21:31:49;15.30;99.90
8408;DHT22;4241;48.452;9.216;2023-05-07T21:34:17;15.20;99.90
8408;DHT22;4241;48.452;9.216;2023-05-07T21:36:44;15.30;99.90
8408;DHT22;4241;48.452;9.216;2023-05-07T21:39:10;15.30;99.90
8408;DHT22;4241;48.452;9.216;2023-05-07T21:41:37;15.20;99.90